sensor_id;sensor_type;location;lat;lon;timestamp;pressure;altitude;pressure_sealevel;temperature;humidity
54172;BME280;40076;52.354;4.970;2023-06-22T00:01:58;101999.44;;;21.80;91.63
54172;BME280;40076;52.354;4.970;2023-06-22T00:04:24;102000.97;;;21.77;91.66
54172;BME280;40076;52.354;4.970;2023-06-22T00:06:49;101996.19;;;21.74;91.92
54172;BME280;40076;52.354;4.970;2023-06-22T00:09:15;101998.53;;;21.72;92.21
54172;BME280;40076;52.354;4.970;2023-06-22T00:11:47;102000.47;;;21.72;92.31
54172;BME280;40076;52.354;4.970;2023-06-22T00:14:12;101999.69;;;21.71;92.40
54172;BME280;40076;52.354;4.970;2023-06-22T00:16:38;102005.53;;;21.70;92.41
54172;BME280;40076;52.354;4.970;2023-06-22T00:19:03;102002.78;;;21.70;92.52
54172;BME280;40076;52.354;4.970;2023-06-22T00:21:32;102005.91;;;21.68;92.73
54172;BME280;40076;52.354;4.970;2023-06-22T00:23:58;102008.25;;;21.66;92.84
54172;BME280;40076;52.354;4.970;2023-06-22T00:26:23;102001.88;;;21.62;93.21
54172;BME280;40076;52.354;4.970;2023-06-22T00:28:49;102002.59;;;21.59;93.49
54172;BME280;40076;52.354;4.970;2023-06-22T00:31:15;102002.09;;;21.53;93.48
54172;BME280;40076;52.354;4.970;2023-06-22T00:33:40;102004.00;;;21.49;93.60
54172;BME280;40076;52.354;4.970;2023-06-22T00:36:06;102007.03;;;21.44;93.69
54172;BME280;40076;52.354;4.970;2023-06-22T00:38:33;102003.78;;;21.39;94.53
54172;BME280;40076;52.354;4.970;2023-06-22T00:41:01;102001.41;;;21.37;94.97
54172;BME280;40076;52.354;4.970;2023-06-22T00:43:27;102004.53;;;21.36;95.45
54172;BME280;40076;52.354;4.970;2023-06-22T00:45:55;102004.91;;;21.34;95.85
54172;BME280;40076;52.354;4.970;2023-06-22T00:48:21;102006.06;;;21.33;95.92
54172;BME280;40076;52.354;4.970;2023-06-22T00:50:47;101998.59;;;21.34;96.33
54172;BME280;40076;52.354;4.970;2023-06-22T00:53:15;102006.84;;;21.34;96.25
54172;BME280;40076;52.354;4.970;2023-06-22T00:55:44;101997.38;;;21.31;96.49
54172;BME280;40076;52.354;4.970;2023-06-22T00:58:11;101991.88;;;21.31;96.82
54172;BME280;40076;52.354;4.970;2023-06-22T01:00:37;101991.06;;;21.31;96.93
54172;BME280;40076;52.354;4.970;2023-06-22T01:03:03;101990.63;;;21.29;96.90
54172;BME280;40076;52.354;4.970;2023-06-22T01:05:29;101989.41;;;21.26;97.13
54172;BME280;40076;52.354;4.970;2023-06-22T01:13:16;101983.78;;;21.19;98.17
54172;BME280;40076;52.354;4.970;2023-06-22T01:15:50;101983.34;;;21.17;98.33
54172;BME280;40076;52.354;4.970;2023-06-22T01:18:18;101981.66;;;21.12;98.66
54172;BME280;40076;52.354;4.970;2023-06-22T01:20:45;101983.97;;;21.10;99.19
54172;BME280;40076;52.354;4.970;2023-06-22T01:24:16;101981.94;;;21.07;99.65
54172;BME280;40076;52.354;4.970;2023-06-22T01:26:42;101978.34;;;21.03;100.00
54172;BME280;40076;52.354;4.970;2023-06-22T01:29:11;101980.28;;;21.03;100.00
54172;BME280;40076;52.354;4.970;2023-06-22T01:31:42;101973.91;;;20.99;100.00
54172;BME280;40076;52.354;4.970;2023-06-22T01:34:09;101979.41;;;20.99;100.00
54172;BME280;40076;52.354;4.970;2023-06-22T01:36:36;101979.00;;;20.97;100.00
54172;BME280;40076;52.354;4.970;2023-06-22T01:39:03;101976.97;;;20.94;100.00
54172;BME280;40076;52.354;4.970;2023-06-22T01:41:35;101984.41;;;20.93;100.00
54172;BME280;40076;52.354;4.970;2023-06-22T01:44:02;101984.41;;;20.93;100.00
54172;BME280;40076;52.354;4.970;2023-06-22T01:46:30;101982.00;;;20.92;100.00
54172;BME280;40076;52.354;4.970;2023-06-22T01:48:56;101985.16;;;20.90;100.00
54172;BME280;40076;52.354;4.970;2023-06-22T01:51:21;101986.66;;;20.88;100.00
54172;BME280;40076;52.354;4.970;2023-06-22T01:53:47;101976.00;;;20.86;100.00
54172;BME280;40076;52.354;4.970;2023-06-22T01:56:18;101984.25;;;20.86;100.00
54172;BME280;40076;52.354;4.970;2023-06-22T01:58:50;101984.25;;;20.86;100.00
54172;BME280;40076;52.354;4.970;2023-06-22T02:01:27;101976.38;;;20.85;100.00
54172;BME280;40076;52.354;4.970;2023-06-22T02:04:06;101979.91;;;20.85;100.00
54172;BME280;40076;52.354;4.970;2023-06-22T02:06:37;101970.06;;;20.84;100.00
54172;BME280;40076;52.354;4.970;2023-06-22T02:09:08;101978.72;;;20.83;100.00
54172;BME280;40076;52.354;4.970;2023-06-22T02:11:35;101975.53;;;20.80;100.00
54172;BME280;40076;52.354;4.970;2023-06-22T02:14:01;101971.97;;;20.80;100.00
54172;BME280;40076;52.354;4.970;2023-06-22T02:16:27;101973.91;;;20.79;100.00
54172;BME280;40076;52.354;4.970;2023-06-22T02:18:55;101975.06;;;20.78;100.00
54172;BME280;40076;52.354;4.970;2023-06-22T02:21:23;101960.53;;;20.78;100.00
54172;BME280;40076;52.354;4.970;2023-06-22T02:23:50;101965.59;;;20.76;100.00
54172;BME280;40076;52.354;4.970;2023-06-22T02:26:17;101953.41;;;20.73;100.00
54172;BME280;40076;52.354;4.970;2023-06-22T02:28:43;101953.75;;;20.72;100.00
54172;BME280;40076;52.354;4.970;2023-06-22T02:31:08;101963.50;;;20.69;100.00
54172;BME280;40076;52.354;4.970;2023-06-22T02:33:33;101959.53;;;20.67;100.00
54172;BME280;40076;52.354;4.970;2023-06-22T02:35:59;101959.09;;;20.65;100.00
54172;BME280;40076;52.354;4.970;2023-06-22T02:38:24;101964.16;;;20.63;100.00
54172;BME280;40076;52.354;4.970;2023-06-22T02:40:50;101954.31;;;20.62;100.00
54172;BME280;40076;52.354;4.970;2023-06-22T02:43:34;101965.66;;;20.60;100.00
54172;BME280;40076;52.354;4.970;2023-06-22T02:46:00;101957.78;;;20.59;100.00
54172;BME280;40076;52.354;4.970;2023-06-22T02:48:28;101964.09;;;20.59;100.00
54172;BME280;40076;52.354;4.970;2023-06-22T02:51:00;101962.03;;;20.56;100.00
54172;BME280;40076;52.354;4.970;2023-06-22T02:53:25;101952.22;;;20.55;100.00
54172;BME280;40076;52.354;4.970;2023-06-22T02:55:51;101953.31;;;20.51;100.00
54172;BME280;40076;52.354;4.970;2023-06-22T02:58:39;101948.88;;;20.46;100.00
54172;BME280;40076;52.354;4.970;2023-06-22T03:01:05;101956.69;;;20.44;100.00
54172;BME280;40076;52.354;4.970;2023-06-22T03:03:50;101957.38;;;20.41;100.00
54172;BME280;40076;52.354;4.970;2023-06-22T03:06:16;101955.00;;;20.39;100.00
54172;BME280;40076;52.354;4.970;2023-06-22T03:08:41;101959.69;;;20.39;100.00
54172;BME280;40076;52.354;4.970;2023-06-22T03:11:07;101957.31;;;20.37;100.00
54172;BME280;40076;52.354;4.970;2023-06-22T03:13:33;101953.75;;;20.37;100.00
54172;BME280;40076;52.354;4.970;2023-06-22T03:15:58;101953.00;;;20.36;100.00
54172;BME280;40076;52.354;4.970;2023-06-22T03:18:23;101949.78;;;20.34;100.00
54172;BME280;40076;52.354;4.970;2023-06-22T03:20:55;101947.38;;;20.33;100.00
54172;BME280;40076;52.354;4.970;2023-06-22T03:23:20;101943.84;;;20.32;100.00
54172;BME280;40076;52.354;4.970;2023-06-22T03:25:46;101950.81;;;20.30;100.00
54172;BME280;40076;52.354;4.970;2023-06-22T03:28:12;101950.81;;;20.30;100.00
54172;BME280;40076;52.354;4.970;2023-06-22T03:30:45;101947.66;;;20.28;100.00
54172;BME280;40076;52.354;4.970;2023-06-22T03:33:11;101960.25;;;20.29;100.00
54172;BME280;40076;52.354;4.970;2023-06-22T03:35:36;101958.19;;;20.26;100.00
54172;BME280;40076;52.354;4.970;2023-06-22T03:38:01;101953.06;;;20.24;100.00
54172;BME280;40076;52.354;4.970;2023-06-22T03:40:27;101953.00;;;20.21;100.00
54172;BME280;40076;52.354;4.970;2023-06-22T03:43:04;101937.22;;;20.18;100.00
54172;BME280;40076;52.354;4.970;2023-06-22T03:45:29;101935.97;;;20.15;100.00
54172;BME280;40076;52.354;4.970;2023-06-22T03:47:55;101936.38;;;20.14;100.00
54172;BME280;40076;52.354;4.970;2023-06-22T03:50:20;101939.47;;;20.12;100.00
54172;BME280;40076;52.354;4.970;2023-06-22T03:52:46;101932.38;;;20.11;100.00
54172;BME280;40076;52.354;4.970;2023-06-22T03:55:12;101932.72;;;20.10;100.00
54172;BME280;40076;52.354;4.970;2023-06-22T03:57:37;101945.28;;;20.11;100.00
54172;BME280;40076;52.354;4.970;2023-06-22T04:00:03;101941.31;;;20.08;100.00
54172;BME280;40076;52.354;4.970;2023-06-22T04:02:31;101953.06;;;20.09;100.00
54172;BME280;40076;52.354;4.970;2023-06-22T04:04:56;101950.69;;;20.07;100.00
54172;BME280;40076;52.354;4.970;2023-06-22T04:07:21;101947.16;;;20.07;100.00
54172;BME280;40076;52.354;4.970;2023-06-22T04:09:47;101943.25;;;20.08;100.00
54172;BME280;40076;52.354;4.970;2023-06-22T04:12:13;101937.34;;;20.06;100.00
54172;BME280;40076;52.354;4.970;2023-06-22T04:14:38;101946.00;;;20.08;100.00
54172;BME280;40076;52.354;4.970;2023-06-22T04:17:04;101940.16;;;20.09;100.00
54172;BME280;40076;52.354;4.970;2023-06-22T04:19:29;101935.03;;;20.08;100.00
54172;BME280;40076;52.354;4.970;2023-06-22T04:21:55;101934.66;;;20.09;100.00
54172;BME280;40076;52.354;4.970;2023-06-22T04:24:20;101929.19;;;20.09;100.00
54172;BME280;40076;52.354;4.970;2023-06-22T04:26:46;101930.78;;;20.10;100.00
54172;BME280;40076;52.354;4.970;2023-06-22T04:29:12;101926.09;;;20.11;100.00
54172;BME280;40076;52.354;4.970;2023-06-22T04:31:37;101934.31;;;20.11;100.00
54172;BME280;40076;52.354;4.970;2023-06-22T04:34:04;101930.78;;;20.10;100.00
54172;BME280;40076;52.354;4.970;2023-06-22T04:36:38;101931.56;;;20.11;100.00
54172;BME280;40076;52.354;4.970;2023-06-22T04:39:05;101931.56;;;20.11;100.00
54172;BME280;40076;52.354;4.970;2023-06-22T04:41:34;101935.13;;;20.11;100.00
54172;BME280;40076;52.354;4.970;2023-06-22T04:44:07;101939.88;;;20.14;100.00
54172;BME280;40076;52.354;4.970;2023-06-22T04:46:33;101940.31;;;20.16;100.00
54172;BME280;40076;52.354;4.970;2023-06-22T04:49:07;101938.03;;;20.18;100.00
54172;BME280;40076;52.354;4.970;2023-06-22T04:51:37;101936.88;;;20.19;100.00
54172;BME280;40076;52.354;4.970;2023-06-22T04:54:03;101936.53;;;20.21;100.00
54172;BME280;40076;52.354;4.970;2023-06-22T04:56:31;101939.28;;;20.21;100.00
54172;BME280;40076;52.354;4.970;2023-06-22T04:58:56;101938.09;;;20.22;100.00
54172;BME280;40076;52.354;4.970;2023-06-22T05:01:22;101947.91;;;20.23;100.00
54172;BME280;40076;52.354;4.970;2023-06-22T05:03:48;101941.28;;;20.24;100.00
54172;BME280;40076;52.354;4.970;2023-06-22T05:06:13;101938.19;;;20.25;100.00
54172;BME280;40076;52.354;4.970;2023-06-22T05:08:40;101943.78;;;20.29;100.00
54172;BME280;40076;52.354;4.970;2023-06-22T05:11:05;101933.19;;;20.31;100.00
54172;BME280;40076;52.354;4.970;2023-06-22T05:13:32;101938.81;;;20.34;100.00
54172;BME280;40076;52.354;4.970;2023-06-22T05:15:57;101948.25;;;20.37;100.00
54172;BME280;40076;52.354;4.970;2023-06-22T05:18:30;101948.72;;;20.39;100.00
54172;BME280;40076;52.354;4.970;2023-06-22T05:20:58;101943.31;;;20.42;100.00
54172;BME280;40076;52.354;4.970;2023-06-22T05:23:24;101950.47;;;20.47;100.00
54172;BME280;40076;52.354;4.970;2023-06-22T05:25:51;101948.22;;;20.53;100.00
54172;BME280;40076;52.354;4.970;2023-06-22T05:28:18;101945.56;;;20.56;100.00
54172;BME280;40076;52.354;4.970;2023-06-22T05:30:48;101937.78;;;20.58;100.00
54172;BME280;40076;52.354;4.970;2023-06-22T05:33:13;101933.94;;;20.63;100.00
54172;BME280;40076;52.354;4.970;2023-06-22T05:35:38;101927.34;;;20.67;100.00
54172;BME280;40076;52.354;4.970;2023-06-22T05:38:04;101938.41;;;20.71;100.00
54172;BME280;40076;52.354;4.970;2023-06-22T05:40:29;101940.06;;;20.75;100.00
54172;BME280;40076;52.354;4.970;2023-06-22T05:42:55;101940.16;;;20.79;100.00
54172;BME280;40076;52.354;4.970;2023-06-22T05:45:20;101941.47;;;20.85;100.00
54172;BME280;40076;52.354;4.970;2023-06-22T05:47:45;101940.00;;;20.91;100.00
54172;BME280;40076;52.354;4.970;2023-06-22T05:50:11;101939.38;;;20.98;100.00
54172;BME280;40076;52.354;4.970;2023-06-22T05:52:36;101945.72;;;21.02;100.00
54172;BME280;40076;52.354;4.970;2023-06-22T05:55:02;101939.91;;;21.07;100.00
54172;BME280;40076;52.354;4.970;2023-06-22T05:57:28;101946.66;;;21.09;100.00
54172;BME280;40076;52.354;4.970;2023-06-22T05:59:53;101946.75;;;21.13;100.00
54172;BME280;40076;52.354;4.970;2023-06-22T06:02:19;101954.59;;;21.14;100.00
54172;BME280;40076;52.354;4.970;2023-06-22T06:04:44;101955.88;;;21.17;100.00
54172;BME280;40076;52.354;4.970;2023-06-22T06:07:10;101956.66;;;21.17;100.00
54172;BME280;40076;52.354;4.970;2023-06-22T06:09:35;101950.81;;;21.19;100.00
54172;BME280;40076;52.354;4.970;2023-06-22T06:12:00;101955.16;;;21.20;100.00
54172;BME280;40076;52.354;4.970;2023-06-22T06:14:28;101954.75;;;21.22;100.00
54172;BME280;40076;52.354;4.970;2023-06-22T06:16:53;101954.75;;;21.22;100.00
54172;BME280;40076;52.354;4.970;2023-06-22T06:19:18;101951.28;;;21.25;100.00
54172;BME280;40076;52.354;4.970;2023-06-22T06:21:44;101943.13;;;21.28;100.00
54172;BME280;40076;52.354;4.970;2023-06-22T06:24:09;101941.59;;;21.31;100.00
54172;BME280;40076;52.354;4.970;2023-06-22T06:26:35;101944.41;;;21.34;100.00
54172;BME280;40076;52.354;4.970;2023-06-22T06:29:01;101938.16;;;21.37;100.00
54172;BME280;40076;52.354;4.970;2023-06-22T06:31:30;101939.41;;;21.40;100.00
54172;BME280;40076;52.354;4.970;2023-06-22T06:33:55;101934.34;;;21.42;100.00
54172;BME280;40076;52.354;4.970;2023-06-22T06:36:21;101934.38;;;21.45;100.00
54172;BME280;40076;52.354;4.970;2023-06-22T06:38:46;101932.50;;;21.49;100.00
54172;BME280;40076;52.354;4.970;2023-06-22T06:41:16;101938.41;;;21.51;100.00
54172;BME280;40076;52.354;4.970;2023-06-22T06:43:41;101934.59;;;21.56;100.00
54172;BME280;40076;52.354;4.970;2023-06-22T06:46:09;101929.06;;;21.56;100.00
54172;BME280;40076;52.354;4.970;2023-06-22T06:48:35;101928.31;;;21.59;100.00
54172;BME280;40076;52.354;4.970;2023-06-22T06:51:00;101937.00;;;21.61;100.00
54172;BME280;40076;52.354;4.970;2023-06-22T06:53:26;101930.34;;;21.62;100.00
54172;BME280;40076;52.354;4.970;2023-06-22T06:55:52;101928.03;;;21.64;100.00
54172;BME280;40076;52.354;4.970;2023-06-22T06:58:17;101936.34;;;21.68;100.00
54172;BME280;40076;52.354;4.970;2023-06-22T07:00:42;101932.50;;;21.72;100.00
54172;BME280;40076;52.354;4.970;2023-06-22T07:03:08;101933.34;;;21.76;100.00
54172;BME280;40076;52.354;4.970;2023-06-22T07:05:34;101935.00;;;21.81;100.00
54172;BME280;40076;52.354;4.970;2023-06-22T07:08:00;101931.06;;;21.82;100.00
54172;BME280;40076;52.354;4.970;2023-06-22T07:10:26;101929.53;;;21.84;100.00
54172;BME280;40076;52.354;4.970;2023-06-22T07:12:51;101928.03;;;21.87;100.00
54172;BME280;40076;52.354;4.970;2023-06-22T07:15:16;101927.69;;;21.92;100.00
54172;BME280;40076;52.354;4.970;2023-06-22T07:17:42;101918.72;;;21.95;100.00
54172;BME280;40076;52.354;4.970;2023-06-22T07:20:08;101914.06;;;21.99;100.00
54172;BME280;40076;52.354;4.970;2023-06-22T07:22:36;101917.69;;;22.03;100.00
54172;BME280;40076;52.354;4.970;2023-06-22T07:25:01;101921.63;;;22.06;100.00
54172;BME280;40076;52.354;4.970;2023-06-22T07:27:30;101912.28;;;22.10;100.00
54172;BME280;40076;52.354;4.970;2023-06-22T07:30:00;101920.59;;;22.14;100.00
54172;BME280;40076;52.354;4.970;2023-06-22T07:32:25;101924.56;;;22.16;100.00
54172;BME280;40076;52.354;4.970;2023-06-22T07:34:51;101924.22;;;22.21;100.00
54172;BME280;40076;52.354;4.970;2023-06-22T07:37:16;101912.84;;;22.23;100.00
54172;BME280;40076;52.354;4.970;2023-06-22T07:39:41;101909.38;;;22.26;100.00
54172;BME280;40076;52.354;4.970;2023-06-22T07:42:07;101912.59;;;22.31;100.00
54172;BME280;40076;52.354;4.970;2023-06-22T07:44:35;101909.88;;;22.35;100.00
54172;BME280;40076;52.354;4.970;2023-06-22T07:47:00;101899.69;;;22.39;100.00
54172;BME280;40076;52.354;4.970;2023-06-22T07:49:27;101907.63;;;22.44;100.00
54172;BME280;40076;52.354;4.970;2023-06-22T07:51:53;101893.13;;;22.47;100.00
54172;BME280;40076;52.354;4.970;2023-06-22T07:54:18;101890.41;;;22.51;100.00
54172;BME280;40076;52.354;4.970;2023-06-22T07:56:43;101890.81;;;22.53;100.00
54172;BME280;40076;52.354;4.970;2023-06-22T07:59:10;101886.09;;;22.53;100.00
54172;BME280;40076;52.354;4.970;2023-06-22T08:01:35;101889.31;;;22.59;100.00
54172;BME280;40076;52.354;4.970;2023-06-22T08:04:01;101887.41;;;22.63;100.00
54172;BME280;40076;52.354;4.970;2023-06-22T08:06:26;101889.00;;;22.64;100.00
54172;BME280;40076;52.354;4.970;2023-06-22T08:08:51;101884.69;;;22.66;100.00
54172;BME280;40076;52.354;4.970;2023-06-22T08:11:19;101881.19;;;22.69;100.00
54172;BME280;40076;52.354;4.970;2023-06-22T08:13:44;101887.56;;;22.74;100.00
54172;BME280;40076;52.354;4.970;2023-06-22T08:16:09;101881.66;;;22.75;100.00
54172;BME280;40076;52.354;4.970;2023-06-22T08:18:35;101882.91;;;22.78;100.00
54172;BME280;40076;52.354;4.970;2023-06-22T08:21:00;101869.13;;;22.78;100.00
54172;BME280;40076;52.354;4.970;2023-06-22T08:23:26;101880.16;;;22.81;100.00
54172;BME280;40076;52.354;4.970;2023-06-22T08:25:51;101880.59;;;22.83;100.00
54172;BME280;40076;52.354;4.970;2023-06-22T08:28:16;101877.09;;;22.86;100.00
54172;BME280;40076;52.354;4.970;2023-06-22T08:30:42;101873.97;;;22.91;100.00
54172;BME280;40076;52.354;4.970;2023-06-22T08:33:07;101865.75;;;22.95;100.00
54172;BME280;40076;52.354;4.970;2023-06-22T08:35:32;101869.72;;;22.97;100.00
54172;BME280;40076;52.354;4.970;2023-06-22T08:37:58;101858.31;;;22.99;100.00
54172;BME280;40076;52.354;4.970;2023-06-22T08:40:25;101849.66;;;23.00;100.00
54172;BME280;40076;52.354;4.970;2023-06-22T08:42:50;101846.16;;;23.03;100.00
54172;BME280;40076;52.354;4.970;2023-06-22T08:45:15;101847.34;;;23.06;100.00
54172;BME280;40076;52.354;4.970;2023-06-22T08:47:41;101843.47;;;23.11;100.00
54172;BME280;40076;52.354;4.970;2023-06-22T08:50:08;101849.44;;;23.16;100.00
54172;BME280;40076;52.354;4.970;2023-06-22T08:52:34;101854.94;;;23.16;100.00
54172;BME280;40076;52.354;4.970;2023-06-22T08:54:59;101848.25;;;23.17;100.00
54172;BME280;40076;52.354;4.970;2023-06-22T08:57:25;101847.09;;;23.22;100.00
54172;BME280;40076;52.354;4.970;2023-06-22T08:59:51;101843.22;;;23.26;100.00
54172;BME280;40076;52.354;4.970;2023-06-22T09:02:23;101838.50;;;23.30;100.00
54172;BME280;40076;52.354;4.970;2023-06-22T09:04:48;101838.94;;;23.36;100.00
54172;BME280;40076;52.354;4.970;2023-06-22T09:07:20;101840.19;;;23.42;100.00
54172;BME280;40076;52.354;4.970;2023-06-22T09:09:47;101836.28;;;23.46;100.00
54172;BME280;40076;52.354;4.970;2023-06-22T09:12:12;101834.38;;;23.51;100.00
54172;BME280;40076;52.354;4.970;2023-06-22T09:14:38;101836.38;;;23.54;100.00
54172;BME280;40076;52.354;4.970;2023-06-22T09:17:03;101836.78;;;23.56;100.00
54172;BME280;40076;52.354;4.970;2023-06-22T09:19:29;101840.34;;;23.60;100.00
54172;BME280;40076;52.354;4.970;2023-06-22T09:21:54;101843.53;;;23.65;100.00
54172;BME280;40076;52.354;4.970;2023-06-22T09:24:19;101842.78;;;23.68;100.00
54172;BME280;40076;52.354;4.970;2023-06-22T09:26:45;101841.22;;;23.71;100.00
54172;BME280;40076;52.354;4.970;2023-06-22T09:29:10;101837.31;;;23.75;100.00
54172;BME280;40076;52.354;4.970;2023-06-22T09:31:38;101838.13;;;23.79;100.00
54172;BME280;40076;52.354;4.970;2023-06-22T09:34:04;101834.97;;;23.81;100.00
54172;BME280;40076;52.354;4.970;2023-06-22T09:36:29;101835.00;;;23.84;100.00
54172;BME280;40076;52.354;4.970;2023-06-22T09:38:55;101831.88;;;23.86;100.00
54172;BME280;40076;52.354;4.970;2023-06-22T09:41:23;101836.97;;;23.84;100.00
54172;BME280;40076;52.354;4.970;2023-06-22T09:43:49;101837.00;;;23.88;100.00
54172;BME280;40076;52.354;4.970;2023-06-22T09:46:17;101836.22;;;23.91;100.00
54172;BME280;40076;52.354;4.970;2023-06-22T09:48:43;101836.63;;;23.96;100.00
54172;BME280;40076;52.354;4.970;2023-06-22T09:51:08;101842.19;;;24.00;100.00
54172;BME280;40076;52.354;4.970;2023-06-22T09:53:33;101837.88;;;24.02;100.00
54172;BME280;40076;52.354;4.970;2023-06-22T09:56:00;101839.44;;;24.03;100.00
54172;BME280;40076;52.354;4.970;2023-06-22T09:58:26;101839.88;;;24.09;100.00
54172;BME280;40076;52.354;4.970;2023-06-22T10:00:52;101833.97;;;24.14;100.00
54172;BME280;40076;52.354;4.970;2023-06-22T10:03:19;101827.34;;;24.22;100.00
54172;BME280;40076;52.354;4.970;2023-06-22T10:05:45;101825.00;;;24.28;100.00
54172;BME280;40076;52.354;4.970;2023-06-22T10:08:10;101810.81;;;24.33;100.00
54172;BME280;40076;52.354;4.970;2023-06-22T10:10:36;101817.53;;;24.35;100.00
54172;BME280;40076;52.354;4.970;2023-06-22T10:13:09;101813.19;;;24.38;100.00
54172;BME280;40076;52.354;4.970;2023-06-22T10:15:38;101813.59;;;24.43;100.00
54172;BME280;40076;52.354;4.970;2023-06-22T10:18:04;101811.66;;;24.47;100.00
54172;BME280;40076;52.354;4.970;2023-06-22T10:20:29;101808.88;;;24.51;100.00
54172;BME280;40076;52.354;4.970;2023-06-22T10:22:55;101807.72;;;24.52;100.00
54172;BME280;40076;52.354;4.970;2023-06-22T10:25:21;101815.63;;;24.53;100.00
54172;BME280;40076;52.354;4.970;2023-06-22T10:27:46;101806.53;;;24.53;100.00
54172;BME280;40076;52.354;4.970;2023-06-22T10:30:12;101808.91;;;24.54;100.00
54172;BME280;40076;52.354;4.970;2023-06-22T10:32:38;101803.00;;;24.56;100.00
54172;BME280;40076;52.354;4.970;2023-06-22T10:35:04;101810.88;;;24.57;100.00
54172;BME280;40076;52.354;4.970;2023-06-22T10:37:30;101806.16;;;24.58;100.00
54172;BME280;40076;52.354;4.970;2023-06-22T10:39:55;101802.19;;;24.59;99.94
54172;BME280;40076;52.354;4.970;2023-06-22T10:42:20;101808.53;;;24.59;99.63
54172;BME280;40076;52.354;4.970;2023-06-22T10:44:46;101810.91;;;24.61;99.57
54172;BME280;40076;52.354;4.970;2023-06-22T10:47:11;101807.34;;;24.60;99.01
54172;BME280;40076;52.354;4.970;2023-06-22T10:49:40;101811.28;;;24.59;98.73
54172;BME280;40076;52.354;4.970;2023-06-22T10:52:07;101811.28;;;24.59;99.29
54172;BME280;40076;52.354;4.970;2023-06-22T10:54:33;101810.09;;;24.60;99.30
54172;BME280;40076;52.354;4.970;2023-06-22T10:56:59;101806.94;;;24.58;98.38
54172;BME280;40076;52.354;4.970;2023-06-22T10:59:24;101818.00;;;24.58;98.23
54172;BME280;40076;52.354;4.970;2023-06-22T11:01:51;101802.59;;;24.61;98.29
54172;BME280;40076;52.354;4.970;2023-06-22T11:04:16;101808.94;;;24.61;98.53
54172;BME280;40076;52.354;4.970;2023-06-22T11:06:43;101810.09;;;24.60;98.63
54172;BME280;40076;52.354;4.970;2023-06-22T11:09:08;101814.47;;;24.61;98.97
54172;BME280;40076;52.354;4.970;2023-06-22T11:11:34;101810.91;;;24.61;99.61
54172;BME280;40076;52.354;4.970;2023-06-22T11:13:59;101804.19;;;24.62;99.77
54172;BME280;40076;52.354;4.970;2023-06-22T11:16:25;101814.06;;;24.63;99.53
54172;BME280;40076;52.354;4.970;2023-06-22T11:18:50;101811.69;;;24.61;98.86
54172;BME280;40076;52.354;4.970;2023-06-22T11:21:15;101813.28;;;24.63;98.47
54172;BME280;40076;52.354;4.970;2023-06-22T11:23:42;101804.59;;;24.60;98.63
54172;BME280;40076;52.354;4.970;2023-06-22T11:26:07;101816.81;;;24.59;98.24
54172;BME280;40076;52.354;4.970;2023-06-22T11:28:33;101812.06;;;24.56;98.54
54172;BME280;40076;52.354;4.970;2023-06-22T11:30:58;101812.47;;;24.58;99.08
54172;BME280;40076;52.354;4.970;2023-06-22T11:33:24;101814.06;;;24.59;99.23
54172;BME280;40076;52.354;4.970;2023-06-22T11:35:49;101806.56;;;24.60;98.93
54172;BME280;40076;52.354;4.970;2023-06-22T11:38:15;101807.34;;;24.60;98.94
54172;BME280;40076;52.354;4.970;2023-06-22T11:40:40;101802.22;;;24.63;98.98
54172;BME280;40076;52.354;4.970;2023-06-22T11:43:05;101801.44;;;24.62;99.17
54172;BME280;40076;52.354;4.970;2023-06-22T11:45:31;101807.38;;;24.64;99.06
54172;BME280;40076;52.354;4.970;2023-06-22T11:47:56;101794.31;;;24.65;98.98
54172;BME280;40076;52.354;4.970;2023-06-22T11:50:22;101788.41;;;24.66;98.48
54172;BME280;40076;52.354;4.970;2023-06-22T11:52:47;101789.59;;;24.69;98.49
54172;BME280;40076;52.354;4.970;2023-06-22T11:55:13;101784.47;;;24.71;98.65
54172;BME280;40076;52.354;4.970;2023-06-22T11:57:53;101786.81;;;24.72;98.45
54172;BME280;40076;52.354;4.970;2023-06-22T12:00:18;101781.69;;;24.74;98.20
54172;BME280;40076;52.354;4.970;2023-06-22T12:02:44;101775.38;;;24.74;98.25
54172;BME280;40076;52.354;4.970;2023-06-22T12:05:12;101770.25;;;24.76;97.92
54172;BME280;40076;52.354;4.970;2023-06-22T12:07:37;101772.25;;;24.79;97.69
54172;BME280;40076;52.354;4.970;2023-06-22T12:10:03;101767.50;;;24.79;97.49
54172;BME280;40076;52.354;4.970;2023-06-22T12:12:29;101766.31;;;24.84;97.49
54172;BME280;40076;52.354;4.970;2023-06-22T12:14:54;101754.88;;;24.85;96.38
54172;BME280;40076;52.354;4.970;2023-06-22T12:17:19;101752.50;;;24.87;94.91
54172;BME280;40076;52.354;4.970;2023-06-22T12:19:45;101756.84;;;24.88;95.10
54172;BME280;40076;52.354;4.970;2023-06-22T12:22:10;101749.72;;;24.87;94.37
54172;BME280;40076;52.354;4.970;2023-06-22T12:24:35;101740.66;;;24.87;94.42
54172;BME280;40076;52.354;4.970;2023-06-22T12:27:01;101739.09;;;24.86;93.79
54172;BME280;40076;52.354;4.970;2023-06-22T12:29:28;101742.63;;;24.86;93.64
54172;BME280;40076;52.354;4.970;2023-06-22T12:31:54;101743.00;;;24.88;93.33
54172;BME280;40076;52.354;4.970;2023-06-22T12:34:19;101744.59;;;24.89;92.53
54172;BME280;40076;52.354;4.970;2023-06-22T12:36:45;101735.91;;;24.87;92.19
54172;BME280;40076;52.354;4.970;2023-06-22T12:39:12;101735.13;;;24.87;92.04
54172;BME280;40076;52.354;4.970;2023-06-22T12:41:37;101737.47;;;24.88;92.27
54172;BME280;40076;52.354;4.970;2023-06-22T12:44:05;101734.75;;;24.85;92.47
54172;BME280;40076;52.354;4.970;2023-06-22T12:46:31;101731.59;;;24.86;92.39